createdAt,value
2022-12-27T00:00:09.537Z,77.08
2022-12-27T00:02:41.473Z,77.01
2022-12-27T00:05:10.531Z,77.42
2022-12-27T00:07:37.956Z,77.30
2022-12-27T00:10:08.196Z,79.69
2022-12-27T00:12:37.757Z,79.25
2022-12-27T00:15:05.797Z,78.32
2022-12-27T00:17:33.153Z,78.51
2022-12-27T00:20:05.360Z,78.54
2022-12-27T00:22:39.277Z,78.36
2022-12-27T00:25:07.441Z,78.75
2022-12-27T00:27:34.738Z,78.68
2022-12-27T00:30:02.155Z,78.34
2022-12-27T00:32:29.746Z,77.86
2022-12-27T00:34:57.057Z,78.06
2022-12-27T00:37:24.424Z,78.38
2022-12-27T00:39:52.127Z,78.25
2022-12-27T00:42:19.572Z,79.23
2022-12-27T00:44:47.152Z,79.45
2022-12-27T00:47:14.840Z,79.51
2022-12-27T00:49:42.158Z,79.86
2022-12-27T00:52:09.366Z,80.23
2022-12-27T00:54:37.162Z,80.72
2022-12-27T00:57:04.640Z,79.41
2022-12-27T00:59:32.075Z,79.34
2022-12-27T01:02:00.166Z,78.77
2022-12-27T01:04:27.663Z,79.39
2022-12-27T01:06:54.902Z,79.24
2022-12-27T01:09:22.508Z,78.42
2022-12-27T01:11:50.162Z,79.44
2022-12-27T01:14:17.864Z,78.51
2022-12-27T01:16:45.776Z,78.11
2022-12-27T01:19:16.129Z,78.42
2022-12-27T01:21:43.633Z,78.67
2022-12-27T01:24:11.339Z,79.05
2022-12-27T01:26:38.680Z,78.76
2022-12-27T01:29:06.040Z,80.35
2022-12-27T01:31:33.774Z,79.58
2022-12-27T01:34:01.270Z,79.30
2022-12-27T01:36:30.176Z,78.18
2022-12-27T01:38:59.276Z,79.34
2022-12-27T01:41:54.611Z,80.48
2022-12-27T01:44:41.065Z,79.97
2022-12-27T01:47:20.617Z,79.59
2022-12-27T01:49:57.244Z,79.96
2022-12-27T01:52:34.882Z,82.17
2022-12-27T01:55:10.843Z,82.03
2022-12-27T01:57:38.848Z,81.99
2022-12-27T02:00:07.313Z,78.91
2022-12-27T02:02:35.617Z,79.49
2022-12-27T02:05:03.720Z,80.54
2022-12-27T02:07:47.705Z,81.14
2022-12-27T02:10:16.680Z,79.06
2022-12-27T02:12:44.426Z,80.13
2022-12-27T02:15:11.975Z,80.20
2022-12-27T02:17:39.663Z,79.80
2022-12-27T02:20:17.560Z,79.96
2022-12-27T02:23:03.704Z,80.36
2022-12-27T02:25:40.151Z,80.00
2022-12-27T02:28:20.091Z,80.02
2022-12-27T02:30:49.983Z,79.91
2022-12-27T02:33:22.926Z,79.66
2022-12-27T02:36:03.666Z,79.07
2022-12-27T02:38:36.394Z,78.96
2022-12-27T02:41:25.900Z,79.31
2022-12-27T02:44:14.116Z,79.30
2022-12-27T02:47:01.666Z,80.70
2022-12-27T02:49:50.951Z,80.22
2022-12-27T02:52:39.652Z,78.39
2022-12-27T02:55:30.498Z,79.97
2022-12-27T02:58:26.163Z,79.94
2022-12-27T03:01:36.640Z,80.33
2022-12-27T03:04:10.127Z,79.71
2022-12-27T03:07:07.913Z,78.35
2022-12-27T03:10:06.527Z,78.20
2022-12-27T03:12:55.726Z,78.13
2022-12-27T03:15:44.688Z,78.54
2022-12-27T03:18:18.485Z,78.18
2022-12-27T03:21:07.393Z,79.03
2022-12-27T03:23:55.427Z,78.93
2022-12-27T03:26:26.677Z,79.08
2022-12-27T03:29:16.799Z,79.45
2022-12-27T03:32:08.411Z,78.96
2022-12-27T03:34:41.073Z,78.87
2022-12-27T03:37:34.731Z,78.37
2022-12-27T03:40:18.783Z,78.14
2022-12-27T03:43:13.678Z,78.10
2022-12-27T03:46:14.491Z,77.91
2022-12-27T03:49:11.965Z,77.19
2022-12-27T03:52:18.296Z,75.57
2022-12-27T03:54:48.731Z,77.24
2022-12-27T03:57:23.388Z,78.34
2022-12-27T03:59:50.651Z,78.87
2022-12-27T04:02:18.787Z,79.28
2022-12-27T04:04:46.652Z,80.20
2022-12-27T04:07:14.390Z,80.66
2022-12-27T04:10:00.810Z,80.63
2022-12-27T04:12:47.627Z,80.65
2022-12-27T04:15:33.754Z,79.91
2022-12-27T04:18:19.922Z,79.17
2022-12-27T04:21:06.073Z,78.71
2022-12-27T04:23:52.337Z,78.76
2022-12-27T04:26:38.057Z,79.69
2022-12-27T04:29:24.534Z,79.97
2022-12-27T04:32:10.642Z,79.82
2022-12-27T04:34:44.139Z,80.76
2022-12-27T04:37:20.931Z,80.27
2022-12-27T04:40:07.212Z,78.88
2022-12-27T04:42:53.603Z,79.18
2022-12-27T04:45:40.327Z,79.20
2022-12-27T04:48:32.224Z,80.52
2022-12-27T04:51:19.374Z,81.39
2022-12-27T04:54:05.445Z,79.72
2022-12-27T04:56:33.736Z,79.60
2022-12-27T04:59:19.940Z,79.92
2022-12-27T05:02:04.498Z,79.44
2022-12-27T05:04:37.968Z,79.26
2022-12-27T05:07:28.291Z,79.39
2022-12-27T05:10:15.821Z,79.32
2022-12-27T05:13:02.573Z,79.85
2022-12-27T05:15:30.086Z,79.70
2022-12-27T05:17:58.300Z,79.48
2022-12-27T05:20:25.932Z,80.79
2022-12-27T05:23:11.696Z,80.44
2022-12-27T05:25:44.065Z,80.27
2022-12-27T05:28:12.350Z,81.63
2022-12-27T05:30:42.650Z,80.58
2022-12-27T05:33:10.082Z,80.05
2022-12-27T05:35:37.821Z,80.69
2022-12-27T05:38:05.691Z,81.52
2022-12-27T05:40:33.273Z,82.36
2022-12-27T05:43:03.699Z,84.39
2022-12-27T05:45:31.561Z,81.14
2022-12-27T05:48:00.925Z,81.48
2022-12-27T05:50:28.222Z,80.91
2022-12-27T05:53:10.738Z,81.10
2022-12-27T05:55:38.165Z,81.17
2022-12-27T05:58:06.763Z,81.19
2022-12-27T06:00:34.604Z,80.27
2022-12-27T06:03:03.592Z,81.49
2022-12-27T06:05:31.088Z,81.93
2022-12-27T06:07:58.795Z,81.81
2022-12-27T06:10:27.826Z,81.64
2022-12-27T06:12:55.241Z,80.32
2022-12-27T06:15:22.893Z,79.72
2022-12-27T06:17:50.592Z,78.90
2022-12-27T06:20:18.231Z,80.84
2022-12-27T06:22:45.967Z,80.74
2022-12-27T06:25:14.518Z,80.18
2022-12-27T06:27:42.343Z,81.60
2022-12-27T06:30:12.387Z,84.78
2022-12-27T06:32:40.106Z,84.13
2022-12-27T06:35:07.817Z,85.89
2022-12-27T06:37:35.193Z,86.19
2022-12-27T06:40:03.047Z,84.31
2022-12-27T06:42:31.119Z,78.66
2022-12-27T06:44:58.494Z,78.36
2022-12-27T06:47:26.319Z,77.95
2022-12-27T06:49:53.682Z,77.06
2022-12-27T06:52:22.893Z,77.16
2022-12-27T06:54:50.584Z,74.04
2022-12-27T06:57:18.005Z,75.60
2022-12-27T06:59:49.509Z,76.38
2022-12-27T07:02:21.741Z,75.29
2022-12-27T07:04:49.167Z,77.46
2022-12-27T07:07:16.534Z,77.95
2022-12-27T07:09:44.232Z,76.90
2022-12-27T07:12:11.697Z,76.89
2022-12-27T07:14:39.180Z,77.82
2022-12-27T07:17:06.884Z,77.18
2022-12-27T07:19:34.379Z,76.73
2022-12-27T07:22:01.770Z,77.45
2022-12-27T07:24:32.426Z,78.26
2022-12-27T07:27:02.016Z,77.42
2022-12-27T07:29:29.667Z,76.62
2022-12-27T07:31:58.452Z,77.94
2022-12-27T07:34:26.370Z,77.94
2022-12-27T07:36:54.164Z,78.32
2022-12-27T07:39:21.470Z,76.71
2022-12-27T07:41:48.893Z,77.15
2022-12-27T07:44:19.043Z,77.93
2022-12-27T07:46:46.382Z,77.60
2022-12-27T07:49:17.558Z,78.00
2022-12-27T07:51:46.057Z,78.28
2022-12-27T07:54:13.455Z,76.31
2022-12-27T07:56:40.883Z,78.42
2022-12-27T07:59:13.062Z,76.33
2022-12-27T08:01:59.501Z,76.66
2022-12-27T08:04:27.372Z,75.85
2022-12-27T08:07:16.846Z,75.79
2022-12-27T08:09:46.499Z,77.64
2022-12-27T08:12:15.480Z,77.26
2022-12-27T08:14:43.257Z,77.26
2022-12-27T08:17:18.674Z,77.05
2022-12-27T08:19:47.227Z,75.59
2022-12-27T08:22:15.654Z,74.55
2022-12-27T08:24:44.122Z,75.77
2022-12-27T08:27:12.482Z,76.26
2022-12-27T08:29:40.228Z,74.75
2022-12-27T08:32:07.640Z,73.51
2022-12-27T08:34:34.946Z,72.96
2022-12-27T08:37:02.732Z,71.49
2022-12-27T08:39:30.449Z,71.28
2022-12-27T08:41:57.799Z,73.76
2022-12-27T08:44:27.499Z,72.99
2022-12-27T08:46:54.719Z,71.88
2022-12-27T08:49:22.786Z,72.82
2022-12-27T08:51:50.464Z,73.92
2022-12-27T08:54:17.845Z,74.68
2022-12-27T08:56:45.270Z,74.23
2022-12-27T08:59:13.129Z,74.88
2022-12-27T09:01:40.628Z,76.11
2022-12-27T09:04:08.123Z,75.48
2022-12-27T09:06:35.843Z,75.38
2022-12-27T09:09:03.254Z,75.24
2022-12-27T09:11:35.444Z,76.36
2022-12-27T09:14:05.737Z,75.60
2022-12-27T09:16:34.391Z,77.82
2022-12-27T09:19:02.595Z,77.58
2022-12-27T09:21:32.287Z,77.21
2022-12-27T09:23:59.567Z,77.96
2022-12-27T09:26:29.474Z,76.91
2022-12-27T09:28:58.351Z,78.41
2022-12-27T09:31:26.544Z,78.47
2022-12-27T09:33:54.387Z,77.57
2022-12-27T09:36:25.260Z,77.87
2022-12-27T09:38:54.350Z,78.28
2022-12-27T09:44:53.050Z,77.78
2022-12-27T09:47:24.208Z,78.88
2022-12-27T09:49:57.250Z,77.82
2022-12-27T09:52:54.829Z,75.16
2022-12-27T09:55:46.181Z,74.82
2022-12-27T09:58:25.645Z,73.40
2022-12-27T10:00:53.376Z,72.01
2022-12-27T10:03:26.041Z,72.20
2022-12-27T10:06:18.568Z,72.46
2022-12-27T10:09:12.604Z,69.03
2022-12-27T10:11:45.388Z,66.22
2022-12-27T10:14:24.858Z,65.42
2022-12-27T10:17:01.034Z,64.21
2022-12-27T10:19:41.143Z,62.25
2022-12-27T10:22:25.622Z,61.80
2022-12-27T10:25:00.909Z,62.09
2022-12-27T10:27:30.073Z,60.31
2022-12-27T10:29:59.524Z,60.40
2022-12-27T10:32:27.509Z,59.73
2022-12-27T10:35:01.464Z,59.49
2022-12-27T10:37:29.494Z,59.04
2022-12-27T10:40:16.440Z,57.61
2022-12-27T10:42:53.400Z,56.51
2022-12-27T10:45:33.690Z,57.14
2022-12-27T10:48:21.174Z,55.82
2022-12-27T10:50:53.883Z,52.69
2022-12-27T10:53:33.144Z,53.77
2022-12-27T10:56:16.953Z,53.16
2022-12-27T10:58:56.555Z,52.28
2022-12-27T11:01:30.530Z,53.03
2022-12-27T11:04:21.952Z,51.40
2022-12-27T11:07:13.573Z,49.91
2022-12-27T11:09:50.867Z,48.77
2022-12-27T11:12:32.408Z,48.35
2022-12-27T11:15:13.956Z,48.66
2022-12-27T11:17:52.269Z,47.33
2022-12-27T11:20:23.254Z,47.23
2022-12-27T11:22:56.722Z,46.22
2022-12-27T11:25:27.194Z,45.42
2022-12-27T11:28:06.901Z,43.71
2022-12-27T11:30:40.366Z,44.13
2022-12-27T11:33:25.204Z,42.46
2022-12-27T11:35:56.072Z,43.00
2022-12-27T11:38:26.739Z,43.74
2022-12-27T11:41:00.399Z,43.00
2022-12-27T11:43:33.563Z,44.07
2022-12-27T11:46:05.942Z,43.09
2022-12-27T11:48:45.588Z,43.00
2022-12-27T11:51:38.407Z,42.63
2022-12-27T11:54:33.075Z,43.25
2022-12-27T11:57:17.732Z,42.93
2022-12-27T11:59:54.454Z,41.96
2022-12-27T12:02:40.563Z,42.29
2022-12-27T12:05:27.402Z,43.29
2022-12-27T12:08:16.061Z,42.51
2022-12-27T12:10:53.527Z,42.15
2022-12-27T12:13:38.961Z,42.22
2022-12-27T12:16:23.952Z,42.43
2022-12-27T12:19:21.724Z,43.18
2022-12-27T12:22:10.377Z,43.40
2022-12-27T12:25:10.072Z,43.97
2022-12-27T12:27:43.797Z,44.37
2022-12-27T12:30:27.322Z,45.22
2022-12-27T12:33:03.738Z,45.22
2022-12-27T12:36:06.833Z,45.43
2022-12-27T12:38:49.071Z,46.93
2022-12-27T12:41:44.140Z,45.39
2022-12-27T12:44:21.477Z,43.87
2022-12-27T12:47:21.125Z,43.27
2022-12-27T12:49:55.003Z,44.47
2022-12-27T12:52:41.901Z,45.97
2022-12-27T12:55:32.150Z,47.40
2022-12-27T12:58:40.300Z,49.00
2022-12-27T13:02:01.513Z,49.87
2022-12-27T13:04:51.807Z,50.94
2022-12-27T13:07:27.382Z,52.49
2022-12-27T13:10:32.244Z,52.82
2022-12-27T13:13:23.402Z,53.63
2022-12-27T13:16:13.943Z,54.42
2022-12-27T13:18:48.358Z,54.77
2022-12-27T13:21:40.771Z,55.21
2022-12-27T13:24:42.773Z,55.04
2022-12-27T13:27:25.620Z,55.36
2022-12-27T13:30:24.924Z,56.03
2022-12-27T13:33:23.424Z,57.02
2022-12-27T13:36:00.523Z,57.42
2022-12-27T13:38:54.049Z,57.32
2022-12-27T13:41:31.006Z,57.84
2022-12-27T13:44:20.270Z,58.77
2022-12-27T13:46:56.636Z,58.99
2022-12-27T13:49:55.476Z,59.67
2022-12-27T13:52:59.215Z,60.15
2022-12-27T13:56:14.870Z,60.26
2022-12-27T13:59:06.184Z,59.76
2022-12-27T14:01:46.483Z,60.55
2022-12-27T14:04:23.801Z,60.67
2022-12-27T14:07:14.409Z,61.58
2022-12-27T14:10:11.807Z,62.07
2022-12-27T14:13:06.890Z,61.84
2022-12-27T14:15:37.858Z,62.89
2022-12-27T14:18:48.482Z,63.68
2022-12-27T14:21:28.429Z,63.26
2022-12-27T14:24:08.269Z,64.02
2022-12-27T14:27:13.650Z,64.49
2022-12-27T14:30:12.093Z,63.75
2022-12-27T14:33:17.062Z,64.17
2022-12-27T14:36:10.068Z,64.06
2022-12-27T14:38:48.139Z,64.63
2022-12-27T14:41:57.779Z,65.27
2022-12-27T14:44:57.721Z,65.06
2022-12-27T14:47:28.022Z,65.53
2022-12-27T14:50:14.565Z,65.20
2022-12-27T14:53:14.555Z,65.42
2022-12-27T14:55:45.115Z,65.27
2022-12-27T14:58:18.554Z,66.19
2022-12-27T15:01:09.560Z,65.99
2022-12-27T15:04:14.170Z,66.53
2022-12-27T15:07:11.316Z,66.06
2022-12-27T15:09:44.613Z,66.70
2022-12-27T15:12:35.114Z,66.39
2022-12-27T15:15:27.381Z,66.66
2022-12-27T15:17:55.080Z,66.71
2022-12-27T15:20:33.868Z,67.75
2022-12-27T15:23:04.422Z,68.19
2022-12-27T15:25:59.234Z,68.05
2022-12-27T15:29:06.977Z,68.83
2022-12-27T15:31:46.454Z,68.18
2022-12-27T15:34:47.080Z,69.66
2022-12-27T15:37:45.931Z,71.59
2022-12-27T15:40:38.894Z,70.42
2022-12-27T15:43:29.505Z,71.21
2022-12-27T15:46:36.391Z,72.27
2022-12-27T15:49:13.152Z,72.76
2022-12-27T15:51:54.378Z,73.15
2022-12-27T15:54:53.632Z,72.52
2022-12-27T15:57:37.075Z,72.13
2022-12-27T16:00:14.925Z,72.45
2022-12-27T16:02:48.797Z,72.86
2022-12-27T16:05:19.379Z,72.82
2022-12-27T16:07:50.403Z,73.60
2022-12-27T16:10:36.359Z,72.38
2022-12-27T16:13:10.774Z,72.84
2022-12-27T16:15:44.999Z,73.10
2022-12-27T16:18:21.842Z,73.31
2022-12-27T16:21:01.964Z,73.57
2022-12-27T16:24:04.018Z,74.58
2022-12-27T16:26:34.690Z,74.63
2022-12-27T16:29:06.964Z,73.07
2022-12-27T16:31:41.860Z,72.90
2022-12-27T16:34:20.820Z,72.92
2022-12-27T16:36:50.056Z,71.71
2022-12-27T16:39:57.486Z,72.36
2022-12-27T16:42:54.233Z,72.03
2022-12-27T16:45:40.084Z,71.68
2022-12-27T16:48:42.681Z,71.68
2022-12-27T16:51:19.506Z,72.24
2022-12-27T16:54:24.231Z,72.22
2022-12-27T16:57:15.633Z,72.74
2022-12-27T16:59:56.741Z,72.85
2022-12-27T17:02:45.281Z,72.65
2022-12-27T17:05:15.939Z,73.52
2022-12-27T17:07:56.202Z,75.75
2022-12-27T17:10:33.081Z,74.57
2022-12-27T17:13:28.895Z,73.10
2022-12-27T17:16:05.475Z,74.31
2022-12-27T17:18:48.626Z,74.67
2022-12-27T17:21:36.511Z,75.36
2022-12-27T17:24:18.986Z,76.49
2022-12-27T17:27:15.173Z,75.79
2022-12-27T17:30:02.988Z,76.69
2022-12-27T17:32:52.344Z,77.85
2022-12-27T17:35:33.638Z,78.08
2022-12-27T17:38:28.449Z,78.61
2022-12-27T17:41:07.936Z,78.92
2022-12-27T17:43:59.165Z,79.06
2022-12-27T17:46:42.107Z,77.09
2022-12-27T17:49:11.027Z,77.63
2022-12-27T17:52:02.310Z,77.17
2022-12-27T17:54:48.894Z,78.48
2022-12-27T17:57:38.243Z,78.43
2022-12-27T18:00:07.176Z,78.40
2022-12-27T18:02:40.875Z,78.70
2022-12-27T18:05:15.146Z,77.73
2022-12-27T18:07:44.518Z,75.92
2022-12-27T18:10:27.990Z,76.13
2022-12-27T18:12:59.389Z,76.06
2022-12-27T18:15:30.831Z,75.84
2022-12-27T18:18:09.141Z,76.17
2022-12-27T18:20:38.797Z,76.55
2022-12-27T18:23:06.321Z,76.13
2022-12-27T18:25:37.791Z,75.63
2022-12-27T18:28:16.613Z,75.76
2022-12-27T18:31:03.108Z,76.70
2022-12-27T18:33:45.287Z,75.53
2022-12-27T18:36:22.603Z,76.83
2022-12-27T18:39:20.409Z,78.02
2022-12-27T18:41:52.779Z,80.08
2022-12-27T18:44:48.728Z,79.83
2022-12-27T18:47:27.171Z,79.33
2022-12-27T18:50:01.449Z,81.57
2022-12-27T18:52:34.975Z,79.98
2022-12-27T18:55:27.004Z,80.78
2022-12-27T18:58:33.945Z,80.38
2022-12-27T19:01:05.968Z,80.37
2022-12-27T19:03:40.251Z,79.61
2022-12-27T19:06:12.762Z,81.20
2022-12-27T19:09:13.697Z,78.94
2022-12-27T19:12:00.079Z,78.87
2022-12-27T19:14:43.493Z,78.87
2022-12-27T19:17:23.623Z,79.62
2022-12-27T19:19:56.921Z,80.26
2022-12-27T19:22:48.332Z,81.55
2022-12-27T19:25:20.590Z,82.46
2022-12-27T19:28:12.097Z,81.09
2022-12-27T19:30:45.315Z,81.83
2022-12-27T19:33:25.389Z,80.75
2022-12-27T19:35:54.246Z,78.64
2022-12-27T19:38:25.152Z,79.49
2022-12-27T19:41:01.271Z,79.94
2022-12-27T19:43:38.578Z,80.94
2022-12-27T19:46:06.121Z,80.37
2022-12-27T19:48:34.104Z,79.40
2022-12-27T19:51:01.600Z,79.01
2022-12-27T19:53:32.882Z,79.13
2022-12-27T19:56:03.067Z,79.39
2022-12-27T19:58:31.226Z,79.52
2022-12-27T20:00:59.099Z,79.48
2022-12-27T20:03:27.406Z,79.70
2022-12-27T20:06:13.723Z,80.47
2022-12-27T20:08:46.220Z,80.66
2022-12-27T20:11:19.632Z,80.10
2022-12-27T20:13:49.005Z,80.28
2022-12-27T20:16:19.403Z,79.91
2022-12-27T20:18:47.740Z,79.82
2022-12-27T20:21:17.393Z,78.97
2022-12-27T20:23:45.978Z,78.71
2022-12-27T20:26:17.899Z,79.58
2022-12-27T20:28:45.533Z,79.10
2022-12-27T20:31:15.623Z,78.65
2022-12-27T20:33:43.855Z,78.08
2022-12-27T20:36:12.253Z,77.79
2022-12-27T20:38:39.903Z,78.43
2022-12-27T20:41:09.780Z,79.01
2022-12-27T20:43:37.443Z,78.20
2022-12-27T20:46:06.629Z,79.05
2022-12-27T20:48:38.209Z,79.21
2022-12-27T20:51:10.696Z,79.49
2022-12-27T20:53:38.359Z,79.77
2022-12-27T20:56:06.835Z,79.07
2022-12-27T20:58:34.921Z,78.22
2022-12-27T21:01:10.357Z,78.41
2022-12-27T21:03:38.302Z,78.74
2022-12-27T21:06:11.483Z,77.79
2022-12-27T21:08:46.698Z,78.60
2022-12-27T21:11:22.827Z,78.39
2022-12-27T21:13:50.612Z,78.78
2022-12-27T21:16:27.431Z,79.00
2022-12-27T21:18:55.725Z,79.59
2022-12-27T21:21:28.277Z,79.41
2022-12-27T21:23:58.063Z,79.77
2022-12-27T21:26:31.799Z,79.44
2022-12-27T21:29:00.636Z,79.19
2022-12-27T21:31:28.893Z,80.04
2022-12-27T21:33:57.524Z,79.16
2022-12-27T21:36:26.751Z,78.23
2022-12-27T21:38:55.097Z,79.73
2022-12-27T21:41:28.171Z,80.55
2022-12-27T21:43:56.480Z,80.03
2022-12-27T21:46:26.461Z,80.90
2022-12-27T21:49:04.678Z,80.35
2022-12-27T21:51:33.592Z,79.94
2022-12-27T21:54:01.133Z,79.71
2022-12-27T21:56:28.834Z,79.84
2022-12-27T21:58:58.066Z,79.18
2022-12-27T22:01:29.037Z,79.32
2022-12-27T22:03:58.212Z,80.06
2022-12-27T22:06:31.125Z,79.08
2022-12-27T22:09:07.340Z,79.45
2022-12-27T22:11:36.209Z,79.78
2022-12-27T22:14:05.121Z,80.14
2022-12-27T22:16:35.595Z,81.87
2022-12-27T22:19:06.502Z,83.10
2022-12-27T22:21:35.560Z,81.42
2022-12-27T22:24:03.623Z,82.60
2022-12-27T22:26:34.924Z,83.19
2022-12-27T22:29:02.503Z,83.82
2022-12-27T22:31:35.337Z,87.49
2022-12-27T22:34:04.495Z,86.78
2022-12-27T22:36:32.073Z,86.22
2022-12-27T22:39:00.320Z,86.08
2022-12-27T22:41:31.283Z,83.65
2022-12-27T22:44:01.121Z,82.02
2022-12-27T22:46:51.197Z,81.16
2022-12-27T22:49:18.163Z,82.11
2022-12-27T22:51:45.795Z,82.00
2022-12-27T22:54:13.129Z,82.04
2022-12-27T22:56:42.533Z,82.07
2022-12-27T22:59:16.306Z,81.51
2022-12-27T23:01:45.093Z,81.93
2022-12-27T23:04:13.834Z,82.15
2022-12-27T23:06:42.096Z,82.66
2022-12-27T23:09:10.256Z,81.60
2022-12-27T23:11:41.142Z,82.13
2022-12-27T23:14:14.070Z,82.89
2022-12-27T23:16:44.527Z,83.21
2022-12-27T23:19:12.989Z,83.89
2022-12-27T23:21:40.529Z,83.18
2022-12-27T23:24:08.840Z,83.56
2022-12-27T23:26:36.254Z,84.18
2022-12-27T23:29:03.877Z,83.75
2022-12-27T23:31:31.991Z,82.75
2022-12-27T23:33:59.538Z,82.46
2022-12-27T23:36:27.037Z,82.29
2022-12-27T23:38:55.570Z,81.23
2022-12-27T23:41:24.817Z,81.29
2022-12-27T23:43:55.029Z,82.30
2022-12-27T23:46:29.387Z,82.27
2022-12-27T23:48:58.447Z,82.47
2022-12-27T23:51:26.610Z,82.83
2022-12-27T23:53:54.434Z,83.08
2022-12-27T23:56:24.436Z,83.53
2022-12-27T23:58:54.552Z,85.07
